Time;durP1;ratioP1;P1;durP2;ratioP2;P2;SDS_P1;SDS_P2;PMS_P1;PMS_P2;Temp;Humidity;BMP_temperature;BMP_pressure;BME280_temperature;BME280_humidity;BME280_pressure;Samples;Min_cycle;Max_cycle;Signal;HPM_P1;HPM_P2
2022/05/19 00:01:23;;;;;;;3.88;3.33;;;;;;;19.91;79.25;100784.94;8382405;28;20135;-64
2022/05/19 00:05:23;;;;;;;7.28;3.35;;;;;;;19.73;80.14;100782.59;8379554;28;20048;-63
2022/05/19 00:09:25;;;;;;;5.35;3.17;;;;;;;19.87;79.43;100783.59;8369069;28;20032;-63
2022/05/19 00:13:27;;;;;;;5.53;3.15;;;;;;;19.75;79.08;100774.16;8368307;28;20493;-63
2022/05/19 00:17:27;;;;;;;6.13;3.78;;;;;;;19.48;80.28;100782.09;8363520;28;20037;-63
2022/05/19 00:21:29;;;;;;;5.15;3.30;;;;;;;19.36;80.80;100771.78;8365542;28;20039;-63
2022/05/19 00:25:30;;;;;;;5.90;3.28;;;;;;;19.26;81.31;100768.47;8364431;28;20493;-63
2022/05/19 00:29:30;;;;;;;3.38;3.05;;;;;;;19.32;80.40;100768.59;8361945;28;20421;-63
2022/05/19 00:33:31;;;;;;;4.13;3.17;;;;;;;19.39;79.50;100764.03;8367659;28;20092;-63
2022/05/19 00:37:31;;;;;;;4.05;3.08;;;;;;;19.28;79.84;100760.94;8350113;28;20033;-63
2022/05/19 00:41:32;;;;;;;4.38;3.47;;;;;;;19.27;80.06;100760.06;8347076;28;20033;-63
2022/05/19 00:45:39;;;;;;;4.35;3.00;;;;;;;19.29;79.62;100758.00;8348759;28;20037;-63
2022/05/19 00:49:44;;;;;;;4.25;3.05;;;;;;;19.18;79.65;100750.22;8351954;28;20596;-63
2022/05/19 00:53:54;;;;;;;5.35;3.38;;;;;;;19.11;79.96;100754.78;8363474;28;20041;-63
2022/05/19 00:58:00;;;;;;;7.90;3.70;;;;;;;19.02;80.17;100755.91;8395734;28;20382;-63
2022/05/19 01:02:03;;;;;;;8.40;3.30;;;;;;;19.00;80.37;100747.00;8363018;28;20045;-63
2022/05/19 01:06:11;;;;;;;6.78;3.75;;;;;;;19.07;80.17;100737.00;8335347;28;20072;-63
2022/05/19 01:10:13;;;;;;;4.95;3.20;;;;;;;19.10;80.18;100739.38;8364103;28;20029;-63
2022/05/19 01:14:14;;;;;;;6.45;3.67;;;;;;;18.86;81.02;100736.91;8359617;28;20029;-63
2022/05/19 01:18:15;;;;;;;9.60;3.97;;;;;;;18.74;81.94;100729.34;8348797;28;20041;-63
2022/05/19 01:22:29;;;;;;;5.03;3.72;;;;;;;18.75;82.24;100731.03;8342732;28;20268;-63
2022/05/19 01:30:49;;;;;;;6.15;3.53;;;;;;;18.71;82.60;100730.56;8440826;27;20929;-62
2022/05/19 01:34:49;;;;;;;5.88;3.80;;;;;;;18.74;82.46;100719.25;8462018;28;20412;-62
2022/05/19 01:38:59;;;;;;;5.78;3.58;;;;;;;18.64;82.72;100715.94;8472169;28;20028;-63
2022/05/19 01:43:16;;;;;;;4.70;3.63;;;;;;;18.63;83.08;100711.47;8471085;28;20469;-63
2022/05/19 01:51:53;;;;;;;8.10;4.03;;;;;;;18.75;82.45;100715.44;8347441;27;1383164;-84
2022/05/19 01:56:09;;;;;;;6.05;3.58;;;;;;;18.71;82.39;100718.75;8361928;28;20134;-84
2022/05/19 02:00:17;;;;;;;8.25;3.10;;;;;;;18.58;82.38;100694.78;8368699;28;20094;-84
2022/05/19 02:04:56;;;;;;;3.72;3.42;;;;;;;18.75;82.49;100726.41;8361846;28;20028;-84
2022/05/19 02:09:05;;;;;;;4.15;2.83;;;;;;;18.54;83.23;100717.25;8389333;28;20044;-85
2022/05/19 02:13:07;;;;;;;4.72;2.90;;;;;;;18.50;83.55;100710.41;8398697;28;20040;-84
2022/05/19 02:17:10;;;;;;;3.67;3.20;;;;;;;18.58;83.37;100697.50;8396863;28;20833;-84
2022/05/19 02:21:11;;;;;;;5.00;4.07;;;;;;;18.91;82.38;100723.47;8380880;28;20036;-84
2022/05/19 02:25:18;;;;;;;4.18;3.13;;;;;;;18.63;82.56;100680.53;8414966;28;20044;-84
2022/05/19 02:29:23;;;;;;;8.68;3.63;;;;;;;18.52;83.22;100678.22;8372650;28;20044;-84
2022/05/19 02:33:23;;;;;;;;;;;;;;;18.63;83.47;100719.69;8381721;28;20140;-85
2022/05/19 02:37:23;;;;;;;4.37;3.43;;;;;;;18.36;84.72;100720.28;8353490;28;20411;-84
2022/05/19 02:41:24;;;;;;;5.78;3.83;;;;;;;18.35;85.13;100720.47;8335492;28;20050;-84
2022/05/19 02:45:26;;;;;;;5.87;3.77;;;;;;;18.35;85.00;100723.19;8320954;28;20032;-84
2022/05/19 02:49:27;;;;;;;4.20;3.80;;;;;;;18.22;84.95;100690.13;8338051;28;20363;-84
2022/05/19 02:53:27;;;;;;;6.45;3.88;;;;;;;18.45;84.64;100712.88;8345204;28;20503;-84
2022/05/19 02:57:27;;;;;;;5.00;3.45;;;;;;;18.40;85.15;100721.66;8380305;28;20071;-84
2022/05/19 03:01:28;;;;;;;5.15;3.67;;;;;;;18.42;85.03;100725.03;8347370;28;20037;-84
2022/05/19 03:05:31;;;;;;;5.57;3.80;;;;;;;18.35;85.37;100726.78;8375030;28;20575;-84
2022/05/19 03:09:33;;;;;;;4.47;4.07;;;;;;;18.28;85.53;100706.69;8358348;28;20056;-84
2022/05/19 03:13:33;;;;;;;5.20;4.57;;;;;;;18.04;86.93;100709.63;8357262;28;20041;-84
2022/05/19 03:17:34;;;;;;;7.65;4.90;;;;;;;17.91;87.73;100708.53;8325116;28;20040;-84
2022/05/19 03:21:36;;;;;;;5.32;4.55;;;;;;;17.78;88.28;100703.66;8343297;28;20516;-84
2022/05/19 03:25:36;;;;;;;7.32;4.68;;;;;;;17.70;88.73;100709.22;8331568;28;20037;-84
2022/05/19 03:29:37;;;;;;;8.27;4.75;;;;;;;17.79;88.60;100699.91;8351245;28;20041;-84
2022/05/19 03:33:37;;;;;;;5.68;4.07;;;;;;;18.10;86.71;100689.75;8373842;28;20067;-85
2022/05/19 03:37:38;;;;;;;6.55;3.70;;;;;;;18.28;85.79;100701.22;8357166;28;20040;-85
2022/05/19 03:41:39;;;;;;;8.05;4.03;;;;;;;18.47;85.02;100706.19;8350923;28;20137;-85
2022/05/19 03:45:39;;;;;;;6.45;3.33;;;;;;;18.29;84.70;100663.72;8356838;28;20085;-85
2022/05/19 03:49:40;;;;;;;4.57;3.63;;;;;;;18.50;84.87;100714.03;8356710;28;20045;-85
2022/05/19 03:53:40;;;;;;;17.40;4.70;;;;;;;18.47;85.09;100714.38;8354934;28;20033;-85
2022/05/19 03:57:42;;;;;;;5.00;3.92;;;;;;;18.35;85.37;100696.69;8357191;28;20032;-84
2022/05/19 04:01:42;;;;;;;5.68;3.55;;;;;;;18.62;84.74;100715.25;8369598;28;20047;-84
2022/05/19 04:05:43;;;;;;;9.85;3.92;;;;;;;18.54;84.15;100690.69;8348993;28;20545;-84
2022/05/19 04:09:43;;;;;;;6.25;4.50;;;;;;;18.59;84.74;100720.25;8351006;28;20421;-84
2022/05/19 04:13:46;;;;;;;12.48;4.47;;;;;;;18.41;85.65;100711.53;8357173;28;20021;-84
2022/05/19 04:17:47;;;;;;;6.60;4.30;;;;;;;18.18;86.69;100703.38;8348946;28;20459;-84
2022/05/19 04:21:47;;;;;;;7.85;4.13;;;;;;;18.22;87.34;100722.97;8361310;28;20063;-84
2022/05/19 04:25:49;;;;;;;7.00;4.60;;;;;;;18.11;87.70;100710.59;8334800;28;20833;-84
2022/05/19 04:29:49;;;;;;;8.40;4.78;;;;;;;18.17;88.59;100736.38;8326773;28;20059;-84
2022/05/19 04:33:49;;;;;;;6.90;4.25;;;;;;;17.88;88.62;100685.16;8306641;28;20084;-84
2022/05/19 04:37:52;;;;;;;5.25;4.45;;;;;;;18.02;88.07;100689.78;8385526;28;20044;-84
2022/05/19 04:41:52;;;;;;;7.53;4.50;;;;;;;18.35;87.69;100734.16;8348814;28;20075;-84
2022/05/19 04:45:56;;;;;;;6.57;5.00;;;;;;;18.02;88.41;100683.50;8368758;28;20047;-84
2022/05/19 04:50:17;;;;;;;8.52;5.05;;;;;;;18.07;88.72;100692.84;8348756;28;20048;-84
2022/05/19 04:54:18;;;;;;;8.52;4.90;;;;;;;18.23;89.07;100714.59;8329430;28;20493;-84
2022/05/19 04:58:19;;;;;;;6.35;4.97;;;;;;;18.39;88.71;100736.34;8365899;28;20428;-84
2022/05/19 05:02:19;;;;;;;6.50;5.00;;;;;;;18.50;87.81;100703.06;8343724;28;20033;-84
2022/05/19 05:06:20;;;;;;;8.32;4.45;;;;;;;19.00;85.24;100711.38;8371261;28;20093;-85
2022/05/19 05:10:20;;;;;;;4.20;3.75;;;;;;;19.37;83.59;100727.72;8361169;28;20475;-84
2022/05/19 05:14:21;;;;;;;4.85;4.35;;;;;;;19.62;82.06;100713.66;8344460;28;20033;-85
2022/05/19 05:18:34;;;;;;;5.82;3.72;;;;;;;20.14;80.55;100813.06;8345668;28;20036;-86
2022/05/19 05:22:36;;;;;;;4.40;3.42;;;;;;;20.21;79.61;100764.56;8381771;28;20063;-85
2022/05/19 05:26:39;;;;;;;10.95;4.07;;;;;;;20.25;81.02;100774.13;8367539;28;20403;-85
2022/05/19 05:30:39;;;;;;;12.95;4.63;;;;;;;20.43;82.90;100829.44;8373016;28;20109;-84
2022/05/19 05:34:40;;;;;;;7.15;3.83;;;;;;;20.52;80.12;100826.34;8363539;28;20047;-84
2022/05/19 05:38:43;;;;;;;12.35;3.88;;;;;;;20.74;78.66;100833.50;8338193;28;20112;-84
2022/05/19 05:42:43;;;;;;;7.72;3.83;;;;;;;20.68;79.81;100847.22;8386928;28;20036;-84
2022/05/19 05:46:44;;;;;;;10.77;4.28;;;;;;;20.41;83.20;100834.28;8381572;28;20056;-84
2022/05/19 05:50:45;;;;;;;13.07;4.03;;;;;;;20.34;82.21;100830.63;8342376;28;20040;-83
2022/05/19 05:54:45;;;;;;;9.48;4.30;;;;;;;20.25;82.86;100848.28;8385856;28;20036;-84
2022/05/19 05:58:46;;;;;;;14.52;4.25;;;;;;;20.19;84.75;100810.59;8362223;28;20515;-85
2022/05/19 06:02:49;;;;;;;9.48;3.70;;;;;;;20.82;83.42;100813.28;8365573;28;20092;-85
2022/05/19 06:06:49;;;;;;;19.27;3.88;;;;;;;21.54;78.70;100808.28;8321481;28;20335;-85
2022/05/19 06:10:51;;;;;;;11.38;4.00;;;;;;;21.87;76.05;100810.16;8349765;28;20079;-86
2022/05/19 06:15:17;;;;;;;7.75;4.15;;;;;;;22.33;75.73;100816.66;8382836;28;20055;-85
2022/05/19 06:19:18;;;;;;;8.48;3.38;;;;;;;22.61;73.24;100803.56;8339936;28;20048;-85
2022/05/19 06:23:25;;;;;;;11.20;4.18;;;;;;;22.96;72.01;100795.88;8352886;28;20098;-86
2022/05/19 06:27:25;;;;;;;6.65;3.78;;;;;;;22.87;71.17;100766.84;8349796;28;20509;-86
2022/05/19 06:31:26;;;;;;;7.43;3.45;;;;;;;23.00;69.89;100786.97;8332311;28;20433;-85
2022/05/19 06:35:29;;;;;;;5.13;2.95;;;;;;;22.76;70.49;100811.63;8380986;28;20039;-85
2022/05/19 06:39:30;;;;;;;8.07;4.22;;;;;;;22.93;72.88;100812.88;8375789;28;20131;-86
2022/05/19 06:43:30;;;;;;;8.27;3.42;;;;;;;23.26;73.51;100807.38;8390099;28;20032;-86
2022/05/19 06:47:31;;;;;;;10.48;3.80;;;;;;;23.21;72.56;100788.66;8390730;28;20519;-86
2022/05/19 06:51:34;;;;;;;15.93;3.60;;;;;;;23.25;72.87;100778.06;8370974;28;20095;-84
2022/05/19 06:55:36;;;;;;;20.87;4.80;;;;;;;22.93;71.87;100769.59;8375068;28;20044;-84
2022/05/19 06:59:37;;;;;;;11.50;3.88;;;;;;;22.59;73.34;100745.03;8390304;28;20044;-84
2022/05/19 07:03:37;;;;;;;5.40;3.40;;;;;;;22.73;75.04;100757.75;8391304;28;20125;-84
2022/05/19 07:07:38;;;;;;;8.82;4.05;;;;;;;23.13;75.36;100780.59;8368517;28;20081;-84
2022/05/19 07:11:39;;;;;;;12.77;4.10;;;;;;;23.46;73.61;100741.91;8377606;28;20322;-84
2022/05/19 07:15:40;;;;;;;15.18;5.28;;;;;;;23.92;75.38;100778.44;8381824;28;20028;-84
2022/05/19 07:20:43;;;;;;;12.15;4.32;;;;;;;23.79;73.92;100761.94;8366840;28;20034;-84
2022/05/19 07:24:01;;;;;;;10.85;4.38;;;;;;;23.88;73.11;100775.25;8392061;28;20028;-84
2022/05/19 07:28:01;;;;;;;18.10;3.58;;;;;;;23.83;71.74;100765.94;8376466;28;20047;-85
2022/05/19 07:32:02;;;;;;;17.15;3.83;;;;;;;23.67;71.90;100759.03;8356424;28;20037;-84
2022/05/19 07:36:06;;;;;;;8.38;3.22;;;;;;;23.87;71.31;100778.22;8371355;28;20523;-85
2022/05/19 07:40:08;;;;;;;6.20;3.22;;;;;;;24.08;70.97;100784.31;8357035;28;20075;-85
2022/05/19 07:44:10;;;;;;;9.57;4.07;;;;;;;24.18;72.70;100764.50;8355412;28;20036;-84
2022/05/19 07:48:11;;;;;;;10.35;3.97;;;;;;;24.37;71.67;100780.09;8361264;28;20032;-84
2022/05/19 07:52:12;;;;;;;5.85;4.05;;;;;;;24.13;72.20;100759.63;8340598;28;20033;-84
2022/05/19 07:56:13;;;;;;;5.05;3.80;;;;;;;24.39;69.62;100755.81;8325408;28;20564;-85
2022/05/19 08:00:15;;;;;;;10.30;3.67;;;;;;;24.86;70.13;100763.53;8314139;28;20520;-85
2022/05/19 08:04:15;;;;;;;8.00;3.80;;;;;;;25.31;67.02;100740.03;8299427;28;20531;-85
2022/05/19 08:08:16;;;;;;;6.47;2.88;;;;;;;25.15;63.84;100718.53;8378269;28;20398;-85
2022/05/19 08:16:41;;;;;;;7.68;2.70;;;;;;;25.70;61.82;100728.50;8368030;28;20033;-85
2022/05/19 08:20:47;;;;;;;10.55;2.90;;;;;;;25.87;64.50;100757.28;8374121;28;20033;-85
2022/05/19 08:24:49;;;;;;;6.72;3.35;;;;;;;25.98;61.06;100730.72;8340486;28;20037;-84
2022/05/19 08:28:51;;;;;;;5.95;3.17;;;;;;;26.19;62.55;100744.03;8341763;28;20029;-84
2022/05/19 08:32:55;;;;;;;9.57;3.15;;;;;;;25.90;63.35;100717.16;8330718;28;20489;-85
2022/05/19 08:36:55;;;;;;;8.40;3.10;;;;;;;25.86;62.56;100699.31;8353844;28;20064;-85
2022/05/19 08:41:07;;;;;;;5.53;3.38;;;;;;;25.90;62.01;100706.94;8348102;28;20037;-85
2022/05/19 08:45:22;;;;;;;9.23;2.80;;;;;;;26.31;63.01;100737.44;8333249;28;20065;-86
2022/05/19 08:49:44;;;;;;;4.25;2.78;;;;;;;26.93;62.68;100712.94;8322723;28;20045;-85
2022/05/19 08:53:45;;;;;;;8.27;3.10;;;;;;;26.99;62.74;100706.41;8344223;28;20493;-85
2022/05/19 08:58:25;;;;;;;6.43;3.58;;;;;;;27.14;60.72;100704.78;8358760;28;20397;-86
2022/05/19 09:02:34;;;;;;;4.07;2.85;;;;;;;27.58;58.34;100695.81;8400183;28;20116;-85
2022/05/19 09:08:04;;;;;;;5.80;2.70;;;;;;;27.67;56.35;100701.81;8367881;28;20478;-86
2022/05/19 09:11:15;;;;;;;10.75;2.72;;;;;;;27.74;55.89;100710.81;8351648;28;20041;-85
2022/05/19 09:15:15;;;;;;;8.18;2.38;;;;;;;27.90;54.11;100701.75;8345649;28;20032;-86
2022/05/19 09:19:36;;;;;;;3.67;2.05;;;;;;;28.44;53.48;100712.16;8372191;28;20108;-87
2022/05/19 09:23:40;;;;;;;13.68;2.80;;;;;;;28.77;52.34;100698.28;8379108;28;20043;-88
2022/05/19 09:27:43;;;;;;;4.15;2.53;;;;;;;28.22;53.54;100675.06;8355474;28;20044;-87
2022/05/19 09:36:05;;;;;;;5.38;2.67;;;;;;;28.23;54.51;100687.88;8361636;27;20424;-62
2022/05/19 09:40:21;;;;;;;5.75;2.63;;;;;;;28.37;54.09;100689.25;8364180;28;20041;-62
2022/05/19 09:44:29;;;;;;;3.67;2.55;;;;;;;28.09;55.60;100676.22;8323169;28;20053;-62
2022/05/19 09:48:34;;;;;;;3.10;2.25;;;;;;;27.88;55.25;100667.78;8312251;28;20942;-63
2022/05/19 09:52:36;;;;;;;2.97;2.47;;;;;;;28.00;56.03;100671.34;8319045;28;20099;-63
2022/05/19 09:56:44;;;;;;;5.00;2.63;;;;;;;29.12;54.43;100686.88;8312124;28;20061;-63
2022/05/19 10:00:57;;;;;;;5.55;2.85;;;;;;;29.33;53.59;100683.25;8333569;28;20033;-63
2022/05/19 10:05:00;;;;;;;2.97;2.70;;;;;;;29.24;52.55;100696.75;8350636;28;20089;-63
2022/05/19 10:09:08;;;;;;;4.90;2.45;;;;;;;28.63;54.12;100696.94;8362803;28;20080;-63
2022/05/19 10:13:12;;;;;;;6.78;2.78;;;;;;;28.46;54.20;100679.41;8332464;28;20042;-63
2022/05/19 10:17:33;;;;;;;;;;;;;;;28.26;55.25;100663.19;8308051;28;20076;-63
2022/05/19 10:22:13;;;;;;;7.43;3.05;;;;;;;28.20;56.64;100638.31;8305471;28;19932;-63
2022/05/19 10:26:42;;;;;;;5.03;2.70;;;;;;;29.00;54.89;100639.59;8305451;28;20049;-63
2022/05/19 10:31:07;;;;;;;5.97;3.10;;;;;;;29.58;55.33;100636.19;8317720;28;20040;-64
2022/05/19 10:35:19;;;;;;;6.13;2.78;;;;;;;30.18;54.01;100629.31;8344180;28;20091;-64
2022/05/19 10:48:48;;;;;;;3.95;2.78;;;;;;;31.79;50.21;100611.47;8400310;27;20124;-64
2022/05/19 10:53:23;;;;;;;4.32;2.60;;;;;;;31.58;51.03;100608.91;8376207;28;20037;-63
2022/05/19 10:57:51;;;;;;;7.80;2.45;;;;;;;29.89;53.93;100605.56;8390014;27;20041;-63
2022/05/19 11:02:20;;;;;;;9.52;3.30;;;;;;;28.97;56.56;100623.38;8370293;28;20523;-63
2022/05/19 11:06:36;;;;;;;3.83;2.92;;;;;;;28.59;57.68;100615.06;8382367;28;20075;-64
2022/05/19 11:11:04;;;;;;;5.82;3.03;;;;;;;28.17;58.22;100624.91;8382947;27;20071;-63
2022/05/19 11:15:30;;;;;;;5.97;2.65;;;;;;;28.09;58.96;100625.34;8402380;27;20041;-63
2022/05/19 11:19:38;;;;;;;5.93;2.70;;;;;;;28.27;58.45;100623.16;8385063;28;20471;-63
2022/05/19 11:24:04;;;;;;;9.15;2.97;;;;;;;30.02;55.28;100616.31;8386400;27;20055;-63
2022/05/19 11:28:22;;;;;;;6.97;2.65;;;;;;;31.17;52.93;100612.66;8378569;28;20098;-64
2022/05/19 11:32:31;;;;;;;8.90;3.03;;;;;;;30.46;53.43;100610.56;8372358;27;20063;-64
2022/05/19 11:36:38;;;;;;;6.50;3.25;;;;;;;29.90;54.48;100607.28;8382079;28;20128;-63
2022/05/19 11:41:09;;;;;;;4.47;3.03;;;;;;;31.57;53.08;100607.22;8388514;27;20032;-65
2022/05/19 11:45:33;;;;;;;4.30;3.05;;;;;;;32.80;50.75;100601.13;8412785;27;20124;-63
2022/05/19 11:55:30;;;;;;;6.93;3.10;;;;;;;32.66;50.03;100572.03;8385305;27;20033;-64
2022/05/19 11:58:50;;;;;;;6.82;2.90;;;;;;;31.44;52.75;100560.25;8395387;28;20033;-63
2022/05/19 12:03:14;;;;;;;5.47;2.83;;;;;;;31.30;53.75;100545.94;8388613;28;20033;-63
2022/05/19 12:07:36;;;;;;;4.30;2.92;;;;;;;30.73;56.02;100559.06;8364022;28;20062;-63
2022/05/19 12:11:52;;;;;;;7.32;2.90;;;;;;;30.88;55.90;100559.16;8385198;28;20060;-62
2022/05/19 12:15:56;;;;;;;6.05;2.60;;;;;;;30.63;55.83;100538.63;8386874;28;20492;-62
2022/05/19 12:19:58;;;;;;;12.82;2.95;;;;;;;30.87;57.01;100540.75;8376035;28;20090;-63
2022/05/19 12:24:05;;;;;;;7.22;2.70;;;;;;;30.82;56.41;100537.06;8372959;28;20045;-63
2022/05/19 12:28:28;;;;;;;12.45;2.72;;;;;;;30.90;56.27;100530.97;8382503;28;20048;-63
2022/05/19 12:32:35;;;;;;;5.13;2.03;;;;;;;31.17;54.55;100523.25;8396346;28;20074;-63
2022/05/19 12:37:01;;;;;;;9.32;2.50;;;;;;;31.47;52.89;100513.00;8371145;28;20711;-63
2022/05/19 12:41:04;;;;;;;8.75;2.65;;;;;;;31.81;50.92;100508.56;8368446;28;20040;-63
2022/05/19 12:45:27;;;;;;;5.00;2.70;;;;;;;31.53;51.49;100483.91;8371728;28;20037;-62
2022/05/19 12:49:28;;;;;;;5.25;2.60;;;;;;;31.57;51.93;100453.47;8380657;28;20045;-63
2022/05/19 12:58:42;;;;;;;4.38;2.15;;;;;;;31.61;50.46;100438.63;8421497;27;20416;-62
2022/05/19 13:07:21;;;;;;;280.60;21.63;;;;;;;28.47;61.16;100589.28;8429768;27;20392;-62
2022/05/19 13:11:29;;;;;;;217.80;19.73;;;;;;;23.57;86.17;100677.72;8422172;28;20040;-61
2022/05/19 13:15:33;;;;;;;108.47;10.50;;;;;;;21.78;100.00;100678.41;8422538;28;20051;-63
2022/05/19 13:19:36;;;;;;;53.90;7.03;;;;;;;20.78;100.00;100674.56;8411573;28;20041;-63
2022/05/19 13:23:40;;;;;;;40.90;7.05;;;;;;;20.43;100.00;100689.34;8388053;28;20348;-63
2022/05/19 13:36:13;;;;;;;28.02;4.57;;;;;;;20.36;100.00;100790.06;8290519;27;21202;-64
2022/05/19 13:40:34;;;;;;;22.52;3.70;;;;;;;20.34;100.00;100847.09;8285293;28;20430;-64
2022/05/19 13:44:42;;;;;;;8.07;2.88;;;;;;;20.48;100.00;100844.28;8288520;28;20046;-64
2022/05/19 13:53:06;;;;;;;12.30;3.10;;;;;;;20.39;100.00;100855.59;8430011;27;20488;-62
2022/05/19 13:57:10;;;;;;;11.30;2.95;;;;;;;20.22;100.00;100870.63;8418146;28;20044;-62
2022/05/19 14:01:16;;;;;;;;;;;;;;;20.05;100.00;100874.59;8438329;27;20101;-62
2022/05/19 14:05:27;;;;;;;11.77;2.83;;;;;;;19.95;100.00;100852.97;8425811;27;19918;-62
2022/05/19 14:09:52;;;;;;;8.02;2.00;;;;;;;19.71;100.00;100827.72;8471490;27;20047;-62
2022/05/19 14:13:55;;;;;;;5.65;1.63;;;;;;;19.49;100.00;100822.16;8440991;27;20037;-61
2022/05/19 14:18:00;;;;;;;9.95;1.67;;;;;;;19.48;100.00;100828.72;8448375;27;20043;-61
2022/05/19 14:22:02;;;;;;;8.18;1.70;;;;;;;19.61;100.00;100855.44;8446368;27;20043;-61
2022/05/19 14:26:08;;;;;;;11.55;2.20;;;;;;;19.73;100.00;100881.38;8425962;27;20050;-61
2022/05/19 14:30:16;;;;;;;15.73;2.97;;;;;;;19.67;100.00;100895.00;8420102;27;20540;-62
2022/05/19 14:38:37;;;;;;;5.43;1.98;;;;;;;19.86;100.00;100947.44;8412212;27;20406;-61
2022/05/19 14:43:09;;;;;;;;;;;;;;;19.87;100.00;100953.75;8377083;27;20051;-61
2022/05/19 14:47:04;;;;;;;9.18;2.17;;;;;;;19.91;100.00;100933.13;8387610;27;20007;-62
2022/05/19 14:51:11;;;;;;;7.65;1.80;;;;;;;19.97;100.00;100904.94;8412043;27;20028;-62
2022/05/19 14:55:36;;;;;;;11.05;2.20;;;;;;;19.95;100.00;100879.56;8394583;27;20033;-62
2022/05/19 15:03:56;;;;;;;6.10;1.80;;;;;;;19.95;100.00;100885.03;8363909;27;20852;-61
2022/05/19 15:08:01;;;;;;;12.07;2.60;;;;;;;19.65;100.00;100845.81;8331064;28;20072;-61
2022/05/19 15:12:03;;;;;;;6.00;2.42;;;;;;;19.39;100.00;100832.59;8328345;28;20036;-62
2022/05/19 15:16:04;;;;;;;8.93;2.40;;;;;;;19.59;100.00;100856.69;8348694;28;20548;-62
2022/05/19 15:20:05;;;;;;;6.93;2.17;;;;;;;19.77;100.00;100865.38;8311946;28;20418;-62
2022/05/19 15:24:06;;;;;;;7.40;2.22;;;;;;;20.10;100.00;100888.59;8315679;28;20454;-62
2022/05/19 15:28:08;;;;;;;10.48;2.58;;;;;;;20.30;100.00;100889.72;8296112;28;20053;-62
2022/05/19 15:32:09;;;;;;;6.85;2.05;;;;;;;20.46;100.00;100889.47;8292415;28;20650;-62
2022/05/19 15:36:13;;;;;;;8.57;2.60;;;;;;;20.67;100.00;100895.81;8345584;28;20382;-62
2022/05/19 15:40:16;;;;;;;8.43;1.88;;;;;;;20.74;100.00;100893.16;8357753;28;20792;-62
2022/05/19 15:44:16;;;;;;;10.88;2.30;;;;;;;20.92;100.00;100896.28;8301560;28;20407;-62
2022/05/19 15:48:17;;;;;;;6.87;2.00;;;;;;;20.90;100.00;100909.34;8309293;28;20034;-63
2022/05/19 15:52:18;;;;;;;10.20;2.47;;;;;;;20.85;100.00;100907.19;8327016;28;20308;-63
2022/05/19 15:56:19;;;;;;;8.80;2.42;;;;;;;21.00;100.00;100921.75;8325556;28;20128;-63
2022/05/19 16:00:20;;;;;;;5.43;2.00;;;;;;;21.24;100.00;100934.22;8332297;28;20048;-63
2022/05/19 16:04:20;;;;;;;4.95;1.65;;;;;;;21.46;100.00;100932.28;8315760;28;20288;-63
2022/05/19 16:08:21;;;;;;;9.80;2.40;;;;;;;21.37;97.06;100945.31;8320874;28;20068;-63
2022/05/19 16:12:22;;;;;;;3.85;1.90;;;;;;;22.44;93.14;100944.69;8313740;28;20048;-63
2022/05/19 16:16:22;;;;;;;11.63;2.53;;;;;;;21.51;96.09;100949.88;8298920;28;20042;-63
2022/05/19 16:20:23;;;;;;;5.90;1.90;;;;;;;22.45;93.15;100969.28;8295318;28;20073;-62
2022/05/19 16:24:24;;;;;;;5.93;1.80;;;;;;;22.11;94.20;100955.56;8311220;28;20052;-62
2022/05/19 16:28:25;;;;;;;9.27;2.00;;;;;;;22.28;93.09;100951.41;8286531;28;20045;-62
2022/05/19 16:32:26;;;;;;;5.53;2.15;;;;;;;22.03;90.33;100947.50;8289761;28;20057;-62
2022/05/19 16:36:26;;;;;;;7.35;1.80;;;;;;;22.02;92.03;100950.44;8319022;28;20057;-62
2022/05/19 16:40:32;;;;;;;4.32;1.85;;;;;;;22.45;88.61;100949.16;8268280;28;20038;-61
2022/05/19 16:44:33;;;;;;;3.65;1.80;;;;;;;22.16;90.77;100964.06;8287070;28;20169;-62
2022/05/19 16:48:36;;;;;;;4.35;1.70;;;;;;;22.25;90.38;100968.34;8266302;28;20030;-62
2022/05/19 16:52:36;;;;;;;5.32;1.92;;;;;;;22.41;91.54;100956.13;8289426;28;20430;-62
2022/05/19 16:57:45;;;;;;;9.02;2.28;;;;;;;23.02;88.75;100944.00;8290139;28;20050;-62
2022/05/19 17:01:01;;;;;;;4.38;2.03;;;;;;;22.42;91.11;100957.84;8289370;28;20058;-62
2022/05/19 17:05:01;;;;;;;6.82;1.95;;;;;;;22.25;91.59;100956.47;8307282;28;20112;-62
2022/05/19 17:09:02;;;;;;;5.38;1.90;;;;;;;22.08;92.96;100960.66;8289741;28;20050;-61
2022/05/19 17:13:07;;;;;;;4.15;2.58;;;;;;;22.05;92.71;100964.66;8288966;28;20077;-62
2022/05/19 17:17:11;;;;;;;3.35;2.28;;;;;;;21.92;91.03;100989.34;8288903;28;22129;-62
2022/05/19 17:21:12;;;;;;;3.30;1.48;;;;;;;21.90;90.97;100991.50;8289307;28;20100;-62
2022/05/19 17:25:15;;;;;;;4.65;1.70;;;;;;;22.08;92.13;100999.22;8287880;28;20088;-62
2022/05/19 17:29:16;;;;;;;5.22;1.98;;;;;;;22.01;89.59;101004.66;8282217;28;20378;-62
2022/05/19 17:33:16;;;;;;;5.75;2.33;;;;;;;22.06;88.96;100996.66;8284075;28;20049;-62
2022/05/19 17:37:17;;;;;;;8.48;2.05;;;;;;;22.12;89.94;101001.34;8296774;28;20038;-62
2022/05/19 17:41:18;;;;;;;3.40;1.75;;;;;;;22.15;90.28;100978.91;8285809;28;20095;-62
2022/05/19 17:45:18;;;;;;;3.55;1.98;;;;;;;21.91;89.51;100979.41;8288698;28;20069;-62
2022/05/19 17:49:19;;;;;;;6.70;1.98;;;;;;;21.90;90.09;100980.47;8285701;28;20121;-62
2022/05/19 17:53:19;;;;;;;3.65;1.92;;;;;;;22.01;90.96;100966.13;8281510;28;20107;-62
2022/05/19 17:57:19;;;;;;;4.68;2.40;;;;;;;22.10;88.77;100969.53;8288607;28;20046;-62
2022/05/19 18:01:20;;;;;;;5.70;2.20;;;;;;;22.13;89.29;100972.75;8287787;28;20049;-62
2022/05/19 18:05:20;;;;;;;3.83;2.30;;;;;;;22.19;87.52;100969.19;8297275;28;20096;-62
2022/05/19 18:09:21;;;;;;;5.05;2.45;;;;;;;21.89;89.00;100973.25;8287853;28;20095;-62
2022/05/19 18:13:21;;;;;;;5.50;2.10;;;;;;;21.93;89.15;100974.56;8287544;28;20124;-62
2022/05/19 18:18:23;;;;;;;3.90;2.38;;;;;;;21.79;90.26;100978.28;8287744;28;20288;-61
2022/05/19 18:21:42;;;;;;;6.65;2.30;;;;;;;21.67;93.54;100967.97;8286979;28;20038;-61
2022/05/19 18:25:44;;;;;;;4.13;2.50;;;;;;;21.48;95.44;100975.06;8286606;28;20044;-63
2022/05/19 18:29:45;;;;;;;4.45;2.33;;;;;;;21.35;96.33;100975.78;8286387;28;20034;-62
2022/05/19 18:33:46;;;;;;;5.82;2.20;;;;;;;21.29;97.06;100975.75;8287446;28;20141;-61
2022/05/19 18:37:46;;;;;;;3.95;2.33;;;;;;;21.17;96.51;100982.84;8286872;28;20051;-62
2022/05/19 18:46:07;;;;;;;5.75;2.50;;;;;;;20.97;98.75;101003.78;8264781;28;20284;-62
2022/05/19 18:50:11;;;;;;;6.05;2.60;;;;;;;20.90;100.00;101008.31;8278938;28;20052;-61
2022/05/19 18:54:11;;;;;;;4.47;3.00;;;;;;;20.79;100.00;101017.06;8283745;28;20050;-61
2022/05/19 18:58:12;;;;;;;8.10;3.75;;;;;;;20.68;100.00;101009.34;8287813;28;20517;-61
2022/05/19 19:02:13;;;;;;;10.38;4.07;;;;;;;20.59;100.00;100997.59;8275939;28;20070;-61
2022/05/19 19:06:16;;;;;;;7.10;3.70;;;;;;;20.53;100.00;100997.53;8278836;28;20088;-61
2022/05/19 19:10:18;;;;;;;7.40;4.78;;;;;;;20.48;100.00;101008.25;8281675;28;20137;-61
2022/05/19 19:14:19;;;;;;;7.13;3.95;;;;;;;20.48;100.00;101005.50;8280045;28;20050;-61
2022/05/19 19:18:20;;;;;;;6.38;4.63;;;;;;;20.36;100.00;101013.41;8280405;28;20061;-61
2022/05/19 19:22:20;;;;;;;10.25;4.35;;;;;;;20.38;100.00;101018.69;8280768;28;20385;-61
2022/05/19 19:26:22;;;;;;;11.63;5.20;;;;;;;20.31;100.00;101026.00;8275835;28;20091;-61
2022/05/19 19:30:25;;;;;;;8.02;5.30;;;;;;;20.30;100.00;101021.53;8276619;28;20928;-62
2022/05/19 19:34:25;;;;;;;5.68;5.05;;;;;;;20.24;100.00;101022.28;8281108;28;20474;-62
2022/05/19 19:38:26;;;;;;;13.73;5.30;;;;;;;20.11;100.00;101017.47;8281154;28;20080;-62
2022/05/19 19:42:26;;;;;;;7.80;5.60;;;;;;;20.09;100.00;101007.69;8279508;28;20324;-62
2022/05/19 19:46:27;;;;;;;10.30;5.35;;;;;;;20.05;100.00;101006.38;8279438;28;20883;-62
2022/05/19 19:52:00;;;;;;;9.00;5.85;;;;;;;20.09;100.00;101029.66;8286300;28;20048;-61
2022/05/19 19:54:48;;;;;;;7.35;5.45;;;;;;;20.07;100.00;101035.34;8285024;28;20064;-62
2022/05/19 19:58:48;;;;;;;9.20;5.20;;;;;;;20.02;100.00;101025.97;8264168;28;20030;-62
2022/05/19 20:02:49;;;;;;;10.18;6.35;;;;;;;19.83;100.00;101029.28;8282329;28;20364;-61